createdAt,value
2022-10-10T00:01:48.055Z,101668.81
2022-10-10T00:04:17.027Z,101663.59
2022-10-10T00:06:46.030Z,101666.13
2022-10-10T00:09:14.963Z,101662.34
2022-10-10T00:11:43.873Z,101661.28
2022-10-10T00:14:14.176Z,101648.72
2022-10-10T00:16:43.215Z,101651.44
2022-10-10T00:19:12.306Z,101634.00
2022-10-10T00:21:42.439Z,101638.44
2022-10-10T00:24:11.435Z,101632.78
2022-10-10T00:26:40.340Z,101633.22
2022-10-10T00:29:09.337Z,101636.78
2022-10-10T00:31:39.676Z,101632.16
2022-10-10T00:34:08.633Z,101627.06
2022-10-10T00:36:37.617Z,101629.50
2022-10-10T00:39:06.576Z,101613.50
2022-10-10T00:41:35.504Z,101613.75
2022-10-10T00:44:07.349Z,101618.56
2022-10-10T00:46:36.573Z,101608.16
2022-10-10T00:49:11.404Z,101603.88
2022-10-10T00:51:40.996Z,101606.97
2022-10-10T00:54:13.536Z,101597.50
2022-10-10T00:56:48.769Z,101601.09
2022-10-10T00:59:19.588Z,101595.19
2022-10-10T01:01:48.948Z,101596.88
2022-10-10T01:04:34.814Z,101592.38
2022-10-10T01:07:06.968Z,101592.38
2022-10-10T01:09:38.748Z,101583.19
2022-10-10T01:12:19.715Z,101572.56
2022-10-10T01:14:54.769Z,101566.50
2022-10-10T01:17:33.531Z,101566.81
2022-10-10T01:20:42.123Z,101564.41
2022-10-10T01:23:44.514Z,101562.41
2022-10-10T01:26:39.128Z,101557.88
2022-10-10T01:29:18.294Z,101563.50
2022-10-10T01:31:52.265Z,101556.34
2022-10-10T01:34:28.127Z,101555.25
2022-10-10T01:37:02.918Z,101552.91
2022-10-10T01:39:39.973Z,101549.72
2022-10-10T01:42:15.678Z,101549.38
2022-10-10T01:44:47.633Z,101554.09
2022-10-10T01:47:16.678Z,101547.03
2022-10-10T01:49:48.166Z,101541.66
2022-10-10T01:52:29.437Z,101540.56
2022-10-10T01:55:14.930Z,101534.09
2022-10-10T01:57:58.561Z,101525.19
2022-10-10T02:00:29.122Z,101526.41
2022-10-10T02:03:05.639Z,101521.19
2022-10-10T02:05:43.212Z,101525.06
2022-10-10T02:08:16.050Z,101526.16
2022-10-10T02:10:49.166Z,101522.56
2022-10-10T02:13:19.256Z,101525.00
2022-10-10T02:15:53.663Z,101514.81
2022-10-10T02:18:26.925Z,101524.41
2022-10-10T02:20:56.723Z,101516.84
2022-10-10T02:23:26.526Z,101509.28
2022-10-10T02:25:57.705Z,101515.75
2022-10-10T02:28:32.755Z,101510.31
2022-10-10T02:31:08.107Z,101508.34
2022-10-10T02:33:52.781Z,101511.22
2022-10-10T02:36:22.585Z,101503.25
2022-10-10T02:38:53.892Z,101500.22
2022-10-10T02:41:24.150Z,101497.22
2022-10-10T02:43:53.758Z,101483.25
2022-10-10T02:46:24.862Z,101484.16
2022-10-10T02:48:54.470Z,101486.13
2022-10-10T02:51:26.544Z,101484.44
2022-10-10T02:53:58.630Z,101473.59
2022-10-10T02:56:27.799Z,101476.38
2022-10-10T02:58:57.460Z,101472.28
2022-10-10T03:01:27.838Z,101460.91
2022-10-10T03:03:56.829Z,101456.28
2022-10-10T03:06:25.828Z,101459.00
2022-10-10T03:08:54.791Z,101450.66
2022-10-10T03:11:23.715Z,101448.97
2022-10-10T03:13:52.676Z,101440.91
2022-10-10T03:16:21.731Z,101439.91
2022-10-10T03:18:52.073Z,101441.06
2022-10-10T03:21:21.004Z,101435.38
2022-10-10T03:23:49.942Z,101430.00
2022-10-10T03:26:19.038Z,101433.94
2022-10-10T03:28:47.965Z,101434.72
2022-10-10T03:31:17.062Z,101425.66
2022-10-10T03:33:46.050Z,101433.19
2022-10-10T03:36:16.466Z,101428.72
2022-10-10T03:38:45.449Z,101426.13
2022-10-10T03:41:14.477Z,101420.50
2022-10-10T03:43:43.420Z,101430.38
2022-10-10T03:46:15.983Z,101421.44
2022-10-10T03:48:45.416Z,101423.28
2022-10-10T03:51:15.931Z,101415.91
2022-10-10T03:53:44.933Z,101420.47
2022-10-10T03:56:13.876Z,101415.31
2022-10-10T03:58:42.808Z,101410.72
2022-10-10T04:01:11.923Z,101414.41
2022-10-10T04:03:41.051Z,101411.88
2022-10-10T04:06:10.029Z,101405.31
2022-10-10T04:08:40.354Z,101408.53
2022-10-10T04:11:09.282Z,101407.84
2022-10-10T04:13:38.224Z,101409.19
2022-10-10T04:16:07.713Z,101402.88
2022-10-10T04:18:36.651Z,101396.91
2022-10-10T04:21:06.440Z,101392.66
2022-10-10T04:23:35.407Z,101398.72
2022-10-10T04:26:05.798Z,101384.31
2022-10-10T04:28:34.862Z,101382.00
2022-10-10T04:31:03.879Z,101381.22
2022-10-10T04:33:32.798Z,101384.00
2022-10-10T04:36:01.742Z,101382.50
2022-10-10T04:38:30.681Z,101381.66
2022-10-10T04:40:59.677Z,101374.88
2022-10-10T04:43:30.154Z,101370.66
2022-10-10T04:45:59.263Z,101370.91
2022-10-10T04:48:28.479Z,101366.53
2022-10-10T04:50:59.282Z,101369.31
2022-10-10T04:53:28.403Z,101356.50
2022-10-10T04:55:57.340Z,101353.88
2022-10-10T04:58:26.423Z,101354.13
2022-10-10T05:00:57.324Z,101355.81
2022-10-10T05:03:26.890Z,101351.59
2022-10-10T05:05:56.215Z,101348.16
2022-10-10T05:08:25.266Z,101350.03
2022-10-10T05:10:54.893Z,101348.16
2022-10-10T05:13:23.856Z,101351.34
2022-10-10T05:15:53.627Z,101345.06
2022-10-10T05:18:24.151Z,101332.72
2022-10-10T05:20:53.098Z,101335.84
2022-10-10T05:23:22.037Z,101326.53
2022-10-10T05:25:52.009Z,101330.66
2022-10-10T05:28:21.204Z,101321.22
2022-10-10T05:30:52.063Z,101329.94
2022-10-10T05:33:21.074Z,101330.97
2022-10-10T05:35:51.351Z,101324.94
2022-10-10T05:38:20.272Z,101337.19
2022-10-10T05:40:49.306Z,101329.16
2022-10-10T05:43:18.334Z,101332.75
2022-10-10T05:45:47.285Z,101325.59
2022-10-10T05:48:16.272Z,101329.28
2022-10-10T05:50:51.426Z,101325.84
2022-10-10T05:53:20.396Z,101320.75
2022-10-10T05:55:49.622Z,101323.53
2022-10-10T05:58:18.766Z,101313.88
2022-10-10T06:00:48.661Z,101310.84
2022-10-10T06:03:18.008Z,101307.50
2022-10-10T06:05:49.363Z,101314.47
2022-10-10T06:08:19.665Z,101310.19
2022-10-10T06:10:48.956Z,101308.06
2022-10-10T06:13:24.092Z,101300.13
2022-10-10T06:15:53.487Z,101311.31
2022-10-10T06:18:22.504Z,101301.50
2022-10-10T06:20:51.429Z,101309.13
2022-10-10T06:23:21.930Z,101301.91
2022-10-10T06:25:53.926Z,101310.56
2022-10-10T06:28:23.084Z,101300.56
2022-10-10T06:30:53.150Z,101303.66
2022-10-10T06:33:22.116Z,101303.56
2022-10-10T06:35:51.113Z,101304.16
2022-10-10T06:38:21.413Z,101308.41
2022-10-10T06:40:50.397Z,101302.38
2022-10-10T06:43:19.582Z,101300.53
2022-10-10T06:45:51.237Z,101291.63
2022-10-10T06:48:20.213Z,101300.75
2022-10-10T06:51:01.225Z,101299.09
2022-10-10T06:53:31.547Z,101293.72
2022-10-10T06:56:00.886Z,101287.38
2022-10-10T06:58:31.101Z,101292.84
2022-10-10T07:01:02.152Z,101287.22
2022-10-10T07:03:32.262Z,101284.44
2022-10-10T07:06:02.821Z,101286.00
2022-10-10T07:08:33.208Z,101290.03
2022-10-10T07:11:02.563Z,101287.00
2022-10-10T07:13:31.723Z,101288.84
2022-10-10T07:16:00.692Z,101276.84
2022-10-10T07:18:30.097Z,101277.91
2022-10-10T07:20:59.628Z,101282.75
2022-10-10T07:23:29.474Z,101282.91
2022-10-10T07:26:03.264Z,101279.25
2022-10-10T07:28:32.757Z,101276.03
2022-10-10T07:31:03.201Z,101272.06
2022-10-10T07:33:36.880Z,101267.00
2022-10-10T07:36:06.485Z,101267.44
2022-10-10T07:38:35.867Z,101271.84
2022-10-10T07:41:09.077Z,101271.63
2022-10-10T07:43:38.459Z,101274.34
2022-10-10T07:46:14.950Z,101268.28
2022-10-10T07:48:43.976Z,101259.63
2022-10-10T07:51:13.520Z,101274.78
2022-10-10T07:53:44.099Z,101266.72
2022-10-10T07:56:14.375Z,101264.31
2022-10-10T07:58:43.379Z,101259.94
2022-10-10T08:01:14.354Z,101266.94
2022-10-10T08:03:43.509Z,101265.28
2022-10-10T08:06:14.269Z,101262.69
2022-10-10T08:08:50.747Z,101264.88
2022-10-10T08:11:23.027Z,101268.16
2022-10-10T08:13:52.190Z,101264.47
2022-10-10T08:16:21.778Z,101264.38
2022-10-10T08:18:50.738Z,101259.81
2022-10-10T08:21:19.843Z,101255.47
2022-10-10T08:23:48.814Z,101245.28
2022-10-10T08:26:19.814Z,101247.94
2022-10-10T08:28:50.121Z,101242.84
2022-10-10T08:31:21.533Z,101246.06
2022-10-10T08:33:52.564Z,101239.22
2022-10-10T08:36:23.821Z,101242.78
2022-10-10T08:38:57.337Z,101241.88
2022-10-10T08:41:36.284Z,101233.31
2022-10-10T08:44:15.186Z,101230.28
2022-10-10T08:46:49.451Z,101226.84
2022-10-10T08:49:25.222Z,101231.50
2022-10-10T08:52:04.620Z,101225.19
2022-10-10T08:54:35.581Z,101225.94
2022-10-10T08:57:07.618Z,101214.44
2022-10-10T08:59:41.608Z,101219.91
2022-10-10T09:05:22.384Z,101215.16
2022-10-10T09:08:08.441Z,101207.88
2022-10-10T09:10:47.979Z,101212.56
2022-10-10T09:13:30.777Z,101207.94
2022-10-10T09:16:03.366Z,101203.56
2022-10-10T09:18:45.155Z,101198.59
2022-10-10T09:21:19.225Z,101194.38
2022-10-10T09:23:54.835Z,101193.69
2022-10-10T09:26:28.260Z,101191.03
2022-10-10T09:29:01.903Z,101188.69
2022-10-10T09:31:38.499Z,101186.88
2022-10-10T09:34:16.030Z,101191.25
2022-10-10T09:36:47.530Z,101191.53
2022-10-10T09:39:24.132Z,101187.84
2022-10-10T09:41:59.270Z,101188.47
2022-10-10T09:44:28.750Z,101183.91
2022-10-10T09:47:00.105Z,101174.44
2022-10-10T09:49:30.627Z,101174.78
2022-10-10T09:52:03.064Z,101184.88
2022-10-10T09:54:32.144Z,101167.31
2022-10-10T09:57:01.360Z,101175.28
2022-10-10T09:59:42.389Z,101169.28
2022-10-10T10:02:18.547Z,101168.22
2022-10-10T10:04:48.636Z,101166.47
2022-10-10T10:07:25.701Z,101172.44
2022-10-10T10:09:57.018Z,101171.91
2022-10-10T10:12:29.363Z,101173.78
2022-10-10T10:15:05.181Z,101176.91
2022-10-10T10:17:35.597Z,101173.72
2022-10-10T10:20:10.663Z,101166.00
2022-10-10T10:22:40.567Z,101168.38
2022-10-10T10:25:32.848Z,101169.97
2022-10-10T10:28:20.993Z,101167.59
2022-10-10T10:30:53.187Z,101156.13
2022-10-10T10:33:38.849Z,101159.22
2022-10-10T10:36:19.712Z,101154.28
2022-10-10T10:38:54.114Z,101154.59
2022-10-10T10:41:30.662Z,101154.06
2022-10-10T10:44:15.085Z,101146.09
2022-10-10T10:46:59.205Z,101145.53
2022-10-10T10:49:37.714Z,101141.25
2022-10-10T10:52:42.343Z,101143.22
2022-10-10T10:55:19.765Z,101138.16
2022-10-10T11:01:23.351Z,101130.81
2022-10-10T11:05:20.937Z,101132.09
2022-10-10T11:07:18.267Z,101138.13
2022-10-10T11:10:14.497Z,101141.41
2022-10-10T11:12:55.414Z,101141.28
2022-10-10T11:15:54.069Z,101137.78
2022-10-10T11:18:25.081Z,101137.31
2022-10-10T11:20:59.858Z,101130.38
2022-10-10T11:23:35.280Z,101138.81
2022-10-10T11:26:07.327Z,101128.34
2022-10-10T11:28:43.999Z,101129.13
2022-10-10T11:31:21.326Z,101119.59
2022-10-10T11:33:56.254Z,101118.41
2022-10-10T11:36:29.830Z,101127.16
2022-10-10T11:39:06.443Z,101114.25
2022-10-10T11:41:39.025Z,101114.41
2022-10-10T11:44:12.726Z,101104.69
2022-10-10T11:46:44.720Z,101101.22
2022-10-10T11:49:20.905Z,101095.72
2022-10-10T11:52:32.422Z,101093.19
2022-10-10T11:55:11.251Z,101094.19
2022-10-10T11:57:47.643Z,101096.00
2022-10-10T12:00:18.989Z,101096.69
2022-10-10T12:02:48.862Z,101100.19
2022-10-10T12:05:26.198Z,101091.72
2022-10-10T12:08:08.317Z,101098.00
2022-10-10T12:10:44.244Z,101089.06
2022-10-10T12:13:26.305Z,101089.44
2022-10-10T12:15:57.885Z,101082.47
2022-10-10T12:18:30.466Z,101087.91
2022-10-10T12:21:11.211Z,101082.75
2022-10-10T12:23:42.848Z,101085.56
2022-10-10T12:26:18.293Z,101087.34
2022-10-10T12:29:04.871Z,101090.78
2022-10-10T12:31:36.164Z,101094.59
2022-10-10T12:34:40.869Z,101088.59
2022-10-10T12:37:25.871Z,101094.13
2022-10-10T12:40:20.799Z,101083.00
2022-10-10T12:43:24.952Z,101093.13
2022-10-10T12:46:24.451Z,101088.81
2022-10-10T12:49:19.350Z,101084.38
2022-10-10T12:52:01.933Z,101087.84
2022-10-10T12:54:38.920Z,101077.00
2022-10-10T12:57:23.023Z,101080.28
2022-10-10T12:59:53.629Z,101081.13
2022-10-10T13:02:27.767Z,101086.00
2022-10-10T13:04:59.769Z,101086.56
2022-10-10T13:07:29.489Z,101091.53
2022-10-10T13:10:08.352Z,101084.28
2022-10-10T13:12:37.284Z,101088.91
2022-10-10T13:15:21.383Z,101094.53
2022-10-10T13:17:50.346Z,101088.38
2022-10-10T13:20:31.504Z,101095.69
2022-10-10T13:23:04.302Z,101095.03
2022-10-10T13:25:34.741Z,101086.41
2022-10-10T13:28:05.068Z,101088.59
2022-10-10T13:30:38.628Z,101081.06
2022-10-10T13:33:18.824Z,101085.22
2022-10-10T13:35:49.188Z,101086.69
2022-10-10T13:38:20.694Z,101085.97
2022-10-10T13:40:49.992Z,101089.19
2022-10-10T13:43:20.909Z,101082.00
2022-10-10T13:45:58.790Z,101083.44
2022-10-10T13:48:38.517Z,101084.59
2022-10-10T13:51:10.900Z,101095.16
2022-10-10T13:53:51.679Z,101088.44
2022-10-10T13:56:27.661Z,101088.75
2022-10-10T13:58:59.457Z,101095.78
2022-10-10T14:01:39.557Z,101096.50
2022-10-10T14:04:21.629Z,101093.78
2022-10-10T14:07:00.459Z,101096.22
2022-10-10T14:09:32.873Z,101089.44
2022-10-10T14:12:03.662Z,101090.00
2022-10-10T14:14:41.510Z,101092.97
2022-10-10T14:17:13.019Z,101094.81
2022-10-10T14:19:42.942Z,101098.38
2022-10-10T14:22:12.014Z,101104.25
2022-10-10T14:24:40.961Z,101099.41
2022-10-10T14:27:16.216Z,101093.28
2022-10-10T14:29:45.371Z,101099.69
2022-10-10T14:32:17.590Z,101100.75
2022-10-10T14:34:46.556Z,101099.59
2022-10-10T14:37:20.820Z,101103.91
2022-10-10T14:39:49.719Z,101097.47
2022-10-10T14:42:20.063Z,101102.31
2022-10-10T14:44:49.197Z,101100.00
2022-10-10T14:47:21.451Z,101103.66
2022-10-10T14:49:52.498Z,101099.81
2022-10-10T14:52:21.403Z,101108.44
2022-10-10T14:54:50.354Z,101115.91
2022-10-10T14:57:22.315Z,101107.66
2022-10-10T14:59:51.274Z,101102.78
2022-10-10T15:02:23.290Z,101102.88
2022-10-10T15:04:52.613Z,101107.31
2022-10-10T15:07:21.510Z,101105.34
2022-10-10T15:10:27.469Z,101106.75
2022-10-10T15:12:42.534Z,101103.63
2022-10-10T15:15:13.785Z,101104.09
2022-10-10T15:17:44.322Z,101104.38
2022-10-10T15:20:14.182Z,101105.41
2022-10-10T15:22:43.401Z,101102.44
2022-10-10T15:25:12.311Z,101101.41
2022-10-10T15:27:41.341Z,101105.16
2022-10-10T15:30:11.134Z,101106.31
2022-10-10T15:32:41.040Z,101108.25
2022-10-10T15:35:14.821Z,101100.50
2022-10-10T15:37:44.286Z,101107.97
2022-10-10T15:40:15.707Z,101110.91
2022-10-10T15:42:44.661Z,101110.63
2022-10-10T15:45:16.704Z,101118.81
2022-10-10T15:47:51.720Z,101113.25
2022-10-10T15:50:26.728Z,101121.19
2022-10-10T15:52:55.933Z,101125.63
2022-10-10T15:55:24.821Z,101125.41
2022-10-10T15:57:53.820Z,101129.41
2022-10-10T16:00:22.829Z,101133.63
2022-10-10T16:02:51.730Z,101137.03
2022-10-10T16:05:21.970Z,101149.41
2022-10-10T16:07:53.576Z,101149.06
2022-10-10T16:10:22.494Z,101154.84
2022-10-10T16:12:51.648Z,101153.25
2022-10-10T16:15:20.581Z,101169.16
2022-10-10T16:17:49.688Z,101167.78
2022-10-10T16:20:18.725Z,101175.25
2022-10-10T16:22:48.965Z,101185.56
2022-10-10T16:25:22.433Z,101192.13
2022-10-10T16:27:52.625Z,101187.88
2022-10-10T16:30:21.849Z,101190.28
2022-10-10T16:32:50.798Z,101198.63
2022-10-10T16:35:19.704Z,101201.28
2022-10-10T16:37:50.012Z,101204.63
2022-10-10T16:40:19.233Z,101209.41
2022-10-10T16:42:48.188Z,101216.31
2022-10-10T16:45:17.222Z,101213.13
2022-10-10T16:47:46.234Z,101221.28
2022-10-10T16:50:15.356Z,101229.41
2022-10-10T16:52:44.354Z,101232.84
2022-10-10T16:55:14.876Z,101232.53
2022-10-10T16:57:43.840Z,101230.44
2022-10-10T17:00:13.423Z,101238.44
2022-10-10T17:02:42.936Z,101241.47
2022-10-10T17:05:11.921Z,101254.59
2022-10-10T17:07:40.839Z,101260.41
2022-10-10T17:10:10.829Z,101262.72
2022-10-10T17:12:41.375Z,101258.94
2022-10-10T17:15:10.925Z,101268.38
2022-10-10T17:17:40.156Z,101267.94
2022-10-10T17:20:10.073Z,101275.09
2022-10-10T17:22:40.879Z,101284.16
2022-10-10T17:25:10.968Z,101274.72
2022-10-10T17:27:43.438Z,101280.13
2022-10-10T17:30:13.748Z,101285.69
2022-10-10T17:32:43.376Z,101316.31
2022-10-10T17:35:13.121Z,101305.78
2022-10-10T17:37:42.076Z,101317.91
2022-10-10T17:40:14.633Z,101326.63
2022-10-10T17:42:45.035Z,101360.88
2022-10-10T17:45:14.035Z,101354.84
2022-10-10T17:47:43.137Z,101355.72
2022-10-10T17:50:13.249Z,101363.50
2022-10-10T17:52:42.226Z,101371.28
2022-10-10T17:55:11.263Z,101378.72
2022-10-10T17:57:40.240Z,101383.22
2022-10-10T18:00:12.269Z,101391.81
2022-10-10T18:02:41.306Z,101395.63
2022-10-10T18:05:10.478Z,101396.13
2022-10-10T18:07:39.464Z,101404.34
2022-10-10T18:10:09.069Z,101411.38
2022-10-10T18:12:38.067Z,101405.53
2022-10-10T18:15:10.582Z,101409.47
2022-10-10T18:17:39.590Z,101410.75
2022-10-10T18:20:09.956Z,101407.28
2022-10-10T18:22:38.937Z,101420.66
2022-10-10T18:25:08.647Z,101420.88
2022-10-10T18:27:38.357Z,101422.41
2022-10-10T18:30:08.440Z,101416.91
2022-10-10T18:32:38.898Z,101424.84
2022-10-10T18:35:08.559Z,101428.31
2022-10-10T18:37:37.852Z,101433.50
2022-10-10T18:40:08.104Z,101449.88
2022-10-10T18:42:37.949Z,101451.13
2022-10-10T18:45:08.121Z,101458.06
2022-10-10T18:47:38.883Z,101460.06
2022-10-10T18:50:10.046Z,101462.63
2022-10-10T18:52:39.150Z,101465.91
2022-10-10T18:55:08.496Z,101466.13
2022-10-10T18:57:38.886Z,101478.09
2022-10-10T19:00:09.097Z,101477.38
2022-10-10T19:02:39.482Z,101483.03
2022-10-10T19:05:08.834Z,101489.66
2022-10-10T19:07:37.863Z,101490.91
2022-10-10T19:10:07.429Z,101488.72
2022-10-10T19:12:36.624Z,101488.41
2022-10-10T19:15:06.171Z,101498.28
2022-10-10T19:17:37.829Z,101505.50
2022-10-10T19:20:07.901Z,101511.91
2022-10-10T19:22:37.515Z,101517.75
2022-10-10T19:25:07.399Z,101529.25
2022-10-10T19:27:37.150Z,101532.84
2022-10-10T19:30:07.746Z,101538.06
2022-10-10T19:32:38.437Z,101532.94
2022-10-10T19:35:08.037Z,101536.09
2022-10-10T19:37:37.398Z,101543.94
2022-10-10T19:40:07.165Z,101552.09
2022-10-10T19:42:36.228Z,101553.03
2022-10-10T19:45:06.063Z,101557.75
2022-10-10T19:47:35.509Z,101557.56
2022-10-10T19:50:06.456Z,101568.13
2022-10-10T19:52:35.639Z,101561.94
2022-10-10T19:55:05.288Z,101568.03
2022-10-10T19:57:34.429Z,101567.50
2022-10-10T20:00:03.638Z,101564.97
2022-10-10T20:02:43.894Z,101566.31
2022-10-10T20:05:14.404Z,101578.28
2022-10-10T20:07:44.046Z,101573.13
2022-10-10T20:10:13.233Z,101588.66
2022-10-10T20:12:42.259Z,101596.50
2022-10-10T20:15:12.168Z,101596.28
2022-10-10T20:17:45.249Z,101597.44
2022-10-10T20:20:15.674Z,101607.28
2022-10-10T20:22:45.015Z,101607.16
2022-10-10T20:25:17.726Z,101611.75
2022-10-10T20:27:46.875Z,101621.22
2022-10-10T20:30:16.304Z,101622.44
2022-10-10T20:32:45.404Z,101626.13
2022-10-10T20:35:18.582Z,101626.19
2022-10-10T20:37:47.849Z,101625.47
2022-10-10T20:40:17.026Z,101629.88
2022-10-10T20:42:46.175Z,101633.72
2022-10-10T20:45:17.623Z,101634.00
2022-10-10T20:47:46.809Z,101638.53
2022-10-10T20:50:17.543Z,101645.63
2022-10-10T20:52:46.785Z,101646.22
2022-10-10T20:55:16.026Z,101659.31
2022-10-10T20:57:45.072Z,101654.66
2022-10-10T21:00:15.515Z,101661.88
2022-10-10T21:02:44.599Z,101657.97
2022-10-10T21:05:13.570Z,101662.00
2022-10-10T21:07:45.812Z,101673.91
2022-10-10T21:10:14.940Z,101682.38
2022-10-10T21:12:43.944Z,101680.91
2022-10-10T21:15:12.973Z,101682.69
2022-10-10T21:17:42.111Z,101685.28
2022-10-10T21:20:12.073Z,101694.88
2022-10-10T21:22:41.074Z,101695.72
2022-10-10T21:25:13.151Z,101690.28
2022-10-10T21:27:42.172Z,101692.25
2022-10-10T21:30:11.809Z,101696.44
2022-10-10T21:32:40.848Z,101691.97
2022-10-10T21:35:10.698Z,101704.78
2022-10-10T21:37:39.701Z,101699.63
2022-10-10T21:40:11.784Z,101703.84
2022-10-10T21:42:40.879Z,101707.09
2022-10-10T21:45:10.641Z,101698.13
2022-10-10T21:47:42.163Z,101711.78
2022-10-10T21:50:12.813Z,101719.38
2022-10-10T21:52:41.776Z,101715.72
2022-10-10T21:55:12.420Z,101721.38
2022-10-10T21:57:41.375Z,101715.44
2022-10-10T22:00:11.842Z,101725.13
2022-10-10T22:02:41.067Z,101732.81
2022-10-10T22:05:13.767Z,101733.94
2022-10-10T22:07:44.775Z,101734.19
2022-10-10T22:10:19.228Z,101739.06
2022-10-10T22:12:48.431Z,101739.91
2022-10-10T22:15:17.581Z,101740.06
2022-10-10T22:17:46.586Z,101755.94
2022-10-10T22:20:15.887Z,101753.06
2022-10-10T22:22:45.166Z,101751.47
2022-10-10T22:25:17.690Z,101751.56
2022-10-10T22:27:47.059Z,101758.19
2022-10-10T22:30:16.077Z,101760.97
2022-10-10T22:32:45.000Z,101762.38
2022-10-10T22:35:13.954Z,101760.69
2022-10-10T22:37:42.885Z,101765.66
2022-10-10T22:40:13.942Z,101764.44
2022-10-10T22:42:42.883Z,101771.16
2022-10-10T22:45:12.217Z,101776.13
2022-10-10T22:47:41.150Z,101775.44
2022-10-10T22:50:11.162Z,101781.41
2022-10-10T22:52:40.766Z,101785.78
2022-10-10T22:55:14.413Z,101789.72
2022-10-10T22:57:47.682Z,101791.81
2022-10-10T23:00:18.194Z,101789.09
2022-10-10T23:02:47.301Z,101792.53
2022-10-10T23:05:16.408Z,101791.84
2022-10-10T23:07:45.388Z,101795.31
2022-10-10T23:10:14.334Z,101800.34
2022-10-10T23:12:43.394Z,101803.34
2022-10-10T23:15:13.947Z,101806.50
2022-10-10T23:17:42.913Z,101806.03
2022-10-10T23:20:12.397Z,101805.56
2022-10-10T23:22:41.347Z,101811.13
2022-10-10T23:25:10.389Z,101809.91
2022-10-10T23:27:39.387Z,101817.41
2022-10-10T23:30:09.314Z,101822.16
2022-10-10T23:32:39.657Z,101822.22
2022-10-10T23:35:09.533Z,101818.44
2022-10-10T23:37:38.561Z,101834.25
2022-10-10T23:40:08.391Z,101828.31
2022-10-10T23:42:37.385Z,101837.66
2022-10-10T23:45:07.069Z,101835.28
2022-10-10T23:47:36.030Z,101840.03
2022-10-10T23:50:07.565Z,101842.91
2022-10-10T23:52:36.676Z,101844.34
2022-10-10T23:55:06.660Z,101847.47
2022-10-10T23:57:35.627Z,101840.56
